createdAt,value
2024-01-05T00:00:16.391Z,77.94
2024-01-05T00:02:43.857Z,77.95
2024-01-05T00:05:11.179Z,78.01
2024-01-05T00:07:50.245Z,78.11
2024-01-05T00:10:17.756Z,77.99
2024-01-05T00:12:45.556Z,78.10
2024-01-05T00:15:13.940Z,78.05
2024-01-05T00:17:57.796Z,78.07
2024-01-05T00:20:25.376Z,78.21
2024-01-05T00:22:52.931Z,78.14
2024-01-05T00:25:22.492Z,78.17
2024-01-05T00:27:53.105Z,78.23
2024-01-05T00:30:20.909Z,78.01
2024-01-05T00:32:48.644Z,77.97
2024-01-05T00:35:16.188Z,78.07
2024-01-05T00:37:43.420Z,78.16
2024-01-05T00:40:11.162Z,78.34
2024-01-05T00:42:41.842Z,78.59
2024-01-05T00:45:10.031Z,78.26
2024-01-05T00:47:43.858Z,78.55
2024-01-05T00:50:11.124Z,78.56
2024-01-05T00:52:38.229Z,78.49
2024-01-05T00:55:05.833Z,78.38
2024-01-05T00:57:34.076Z,78.04
2024-01-05T01:00:01.704Z,78.39
2024-01-05T01:02:30.919Z,78.16
2024-01-05T01:04:58.429Z,78.17
2024-01-05T01:07:25.615Z,77.95
2024-01-05T01:09:52.910Z,78.36
2024-01-05T01:12:20.124Z,78.04
2024-01-05T01:14:47.381Z,78.19
2024-01-05T01:17:14.589Z,78.28
2024-01-05T01:19:41.846Z,78.13
2024-01-05T01:22:09.138Z,78.20
2024-01-05T01:24:36.819Z,78.31
2024-01-05T01:27:04.410Z,78.07
2024-01-05T01:29:31.774Z,78.34
2024-01-05T01:31:59.154Z,78.44
2024-01-05T01:34:26.505Z,78.42
2024-01-05T01:36:54.704Z,78.30
2024-01-05T01:39:21.929Z,78.28
2024-01-05T01:41:49.359Z,78.40
2024-01-05T01:44:16.663Z,78.42
2024-01-05T01:46:44.266Z,78.55
2024-01-05T01:49:11.938Z,78.32
2024-01-05T01:51:40.821Z,78.32
2024-01-05T01:54:08.282Z,78.33
2024-01-05T01:56:38.074Z,78.22
2024-01-05T01:59:07.125Z,78.34
2024-01-05T02:01:35.590Z,78.32
2024-01-05T02:04:04.940Z,78.61
2024-01-05T02:06:33.173Z,78.47
2024-01-05T02:09:01.046Z,78.50
2024-01-05T02:11:29.265Z,78.49
2024-01-05T02:13:56.583Z,78.56
2024-01-05T02:16:23.874Z,78.64
2024-01-05T02:19:11.089Z,78.13
2024-01-05T02:21:47.389Z,78.68
2024-01-05T02:24:14.743Z,78.50
2024-01-05T02:26:42.329Z,78.21
2024-01-05T02:29:09.861Z,78.43
2024-01-05T02:31:37.202Z,77.91
2024-01-05T02:34:04.472Z,78.50
2024-01-05T02:36:31.935Z,78.18
2024-01-05T02:39:00.602Z,78.49
2024-01-05T02:41:27.787Z,78.57
2024-01-05T02:43:55.069Z,78.73
2024-01-05T02:46:22.631Z,78.65
2024-01-05T02:48:50.120Z,78.43
2024-01-05T02:51:17.910Z,78.66
2024-01-05T02:53:45.253Z,78.55
2024-01-05T02:56:21.090Z,78.64
2024-01-05T02:58:48.727Z,78.60
2024-01-05T03:01:18.970Z,78.69
2024-01-05T03:03:51.284Z,78.61
2024-01-05T03:06:20.953Z,78.52
2024-01-05T03:08:48.390Z,78.84
2024-01-05T03:11:15.748Z,78.48
2024-01-05T03:13:43.200Z,78.18
2024-01-05T03:16:10.523Z,78.42
2024-01-05T03:18:38.059Z,78.41
2024-01-05T03:21:05.703Z,78.61
2024-01-05T03:23:33.324Z,78.48
2024-01-05T03:26:00.599Z,78.63
2024-01-05T03:28:28.176Z,78.55
2024-01-05T03:30:55.672Z,78.47
2024-01-05T03:33:23.970Z,78.70
2024-01-05T03:35:51.921Z,78.55
2024-01-05T03:38:19.390Z,78.63
2024-01-05T03:40:46.702Z,78.48
2024-01-05T03:43:14.511Z,78.84
2024-01-05T03:45:42.037Z,78.76
2024-01-05T03:48:09.580Z,78.50
2024-01-05T03:50:37.152Z,78.36
2024-01-05T03:53:04.503Z,78.62
2024-01-05T03:55:31.940Z,78.80
2024-01-05T03:57:59.677Z,78.36
2024-01-05T04:00:26.845Z,78.65
2024-01-05T04:02:54.144Z,78.76
2024-01-05T04:05:21.495Z,78.55
2024-01-05T04:07:49.031Z,78.77
2024-01-05T04:10:16.506Z,78.74
2024-01-05T04:12:44.116Z,78.59
2024-01-05T04:15:11.529Z,78.67
2024-01-05T04:17:38.952Z,78.75
2024-01-05T04:20:07.440Z,78.62
2024-01-05T04:22:34.689Z,78.34
2024-01-05T04:25:02.081Z,78.76
2024-01-05T04:27:32.656Z,78.47
2024-01-05T04:29:59.867Z,78.41
2024-01-05T04:32:27.108Z,78.74
2024-01-05T04:34:54.374Z,78.75
2024-01-05T04:37:21.590Z,78.68
2024-01-05T04:39:48.945Z,78.56
2024-01-05T04:42:17.421Z,78.76
2024-01-05T04:44:44.674Z,78.48
2024-01-05T04:47:12.246Z,78.75
2024-01-05T04:49:39.581Z,78.56
2024-01-05T04:52:06.972Z,78.34
2024-01-05T04:54:34.470Z,78.50
2024-01-05T04:57:03.423Z,78.33
2024-01-05T04:59:31.922Z,78.35
2024-01-05T05:02:00.690Z,78.51
2024-01-05T05:04:27.973Z,78.60
2024-01-05T05:06:55.270Z,78.50
2024-01-05T05:09:22.573Z,78.56
2024-01-05T05:11:49.957Z,78.55
2024-01-05T05:14:17.330Z,78.50
2024-01-05T05:16:44.648Z,78.59
2024-01-05T05:19:12.179Z,78.44
2024-01-05T05:21:39.575Z,78.64
2024-01-05T05:24:06.987Z,78.73
2024-01-05T05:26:34.282Z,78.52
2024-01-05T05:29:01.580Z,78.59
2024-01-05T05:31:29.003Z,79.02
2024-01-05T05:33:56.553Z,78.55
2024-01-05T05:36:23.946Z,78.44
2024-01-05T05:38:51.589Z,78.79
2024-01-05T05:41:18.769Z,78.57
2024-01-05T05:43:47.389Z,78.39
2024-01-05T05:46:14.654Z,78.20
2024-01-05T05:48:42.096Z,78.56
2024-01-05T05:51:09.666Z,78.80
2024-01-05T05:53:36.974Z,78.64
2024-01-05T05:56:05.366Z,78.60
2024-01-05T05:58:32.911Z,78.46
2024-01-05T06:01:00.317Z,78.34
2024-01-05T06:03:28.051Z,78.56
2024-01-05T06:05:55.565Z,78.59
2024-01-05T06:08:22.803Z,78.25
2024-01-05T06:10:50.161Z,78.49
2024-01-05T06:13:17.520Z,78.48
2024-01-05T06:15:44.875Z,78.20
2024-01-05T06:18:12.507Z,78.23
2024-01-05T06:20:39.938Z,78.29
2024-01-05T06:23:07.384Z,78.12
2024-01-05T06:25:34.574Z,78.37
2024-01-05T06:28:01.844Z,78.40
2024-01-05T06:30:29.271Z,78.18
2024-01-05T06:32:58.102Z,78.03
2024-01-05T06:35:25.553Z,78.14
2024-01-05T06:37:52.743Z,78.17
2024-01-05T06:40:20.105Z,78.49
2024-01-05T06:42:47.474Z,78.27
2024-01-05T06:45:14.843Z,78.15
2024-01-05T06:47:55.617Z,78.09
2024-01-05T06:50:23.711Z,78.50
2024-01-05T06:52:51.114Z,78.10
2024-01-05T06:55:18.361Z,78.51
2024-01-05T06:57:47.141Z,78.44
2024-01-05T07:00:14.889Z,78.10
2024-01-05T07:02:42.288Z,78.18
2024-01-05T07:05:09.717Z,77.54
2024-01-05T07:07:37.050Z,77.66
2024-01-05T07:10:07.541Z,78.09
2024-01-05T07:12:34.859Z,78.18
2024-01-05T07:15:02.904Z,77.56
2024-01-05T07:20:13.537Z,77.06
2024-01-05T07:22:43.516Z,77.02
2024-01-05T07:25:14.661Z,77.18
2024-01-05T07:27:42.052Z,76.97
2024-01-05T07:30:10.334Z,77.35
2024-01-05T07:32:58.360Z,77.49
2024-01-05T07:35:33.925Z,77.40
2024-01-05T07:38:01.335Z,77.59
2024-01-05T07:40:34.119Z,77.25
2024-01-05T07:43:02.535Z,77.68
2024-01-05T07:45:33.772Z,77.09
2024-01-05T07:48:07.935Z,76.89
2024-01-05T07:50:38.850Z,77.00
2024-01-05T07:53:06.597Z,76.28
2024-01-05T07:55:34.382Z,76.38
2024-01-05T07:58:03.086Z,76.51
2024-01-05T08:00:42.891Z,77.03
2024-01-05T08:03:37.135Z,76.31
2024-01-05T08:06:07.201Z,76.32
2024-01-05T08:08:34.797Z,77.02
2024-01-05T08:11:24.093Z,76.86
2024-01-05T08:13:53.186Z,77.14
2024-01-05T08:16:20.564Z,77.30
2024-01-05T08:18:48.701Z,76.66
2024-01-05T08:21:16.033Z,76.94
2024-01-05T08:23:43.312Z,77.58
2024-01-05T08:26:11.214Z,77.84
2024-01-05T08:28:38.499Z,77.21
2024-01-05T08:31:07.193Z,77.04
2024-01-05T08:33:34.751Z,77.16
2024-01-05T08:36:02.466Z,77.01
2024-01-05T08:38:29.830Z,76.81
2024-01-05T08:40:57.601Z,75.79
2024-01-05T08:43:24.955Z,77.01
2024-01-05T08:45:54.609Z,77.10
2024-01-05T08:48:25.997Z,76.40
2024-01-05T08:50:56.758Z,76.79
2024-01-05T08:53:30.072Z,76.72
2024-01-05T08:56:08.161Z,76.36
2024-01-05T08:58:37.716Z,76.61
2024-01-05T09:01:08.428Z,76.76
2024-01-05T09:03:42.987Z,77.05
2024-01-05T09:06:10.497Z,76.81
2024-01-05T09:08:37.815Z,76.85
2024-01-05T09:11:12.705Z,76.75
2024-01-05T09:13:40.073Z,76.65
2024-01-05T09:16:11.507Z,76.42
2024-01-05T09:18:44.799Z,76.16
2024-01-05T09:21:15.874Z,76.60
2024-01-05T09:23:46.520Z,76.85
2024-01-05T09:26:16.010Z,76.58
2024-01-05T09:29:30.955Z,76.41
2024-01-05T09:31:59.336Z,76.27
2024-01-05T09:34:50.041Z,76.37
2024-01-05T09:37:20.220Z,76.72
2024-01-05T09:40:11.874Z,76.94
2024-01-05T09:43:03.620Z,76.66
2024-01-05T09:45:57.154Z,77.21
2024-01-05T09:48:48.503Z,77.36
2024-01-05T09:51:47.770Z,77.20
2024-01-05T09:54:35.477Z,77.35
2024-01-05T09:57:49.803Z,77.20
2024-01-05T10:00:37.368Z,77.27
2024-01-05T10:03:28.066Z,77.31
2024-01-05T10:06:19.154Z,77.35
2024-01-05T10:09:07.414Z,76.89
2024-01-05T10:11:55.940Z,76.50
2024-01-05T10:14:43.158Z,75.52
2024-01-05T10:17:30.413Z,75.07
2024-01-05T10:20:18.827Z,75.83
2024-01-05T10:22:49.945Z,75.36
2024-01-05T10:25:37.624Z,75.50
2024-01-05T10:28:33.721Z,75.35
2024-01-05T10:31:21.021Z,76.24
2024-01-05T10:34:10.328Z,76.22
2024-01-05T10:37:07.445Z,76.23
2024-01-05T10:39:55.708Z,76.03
2024-01-05T10:42:42.986Z,76.66
2024-01-05T10:45:30.943Z,75.91
2024-01-05T10:48:21.309Z,76.02
2024-01-05T10:51:09.170Z,76.56
2024-01-05T10:53:58.441Z,76.29
2024-01-05T10:56:46.846Z,76.73
2024-01-05T10:59:37.185Z,75.74
2024-01-05T11:02:42.674Z,76.15
2024-01-05T11:05:32.341Z,76.34
2024-01-05T11:08:37.623Z,76.13
2024-01-05T11:11:43.123Z,76.03
2024-01-05T11:14:42.422Z,76.11
2024-01-05T11:17:48.678Z,76.53
2024-01-05T11:21:06.677Z,76.36
2024-01-05T11:23:58.107Z,76.50
2024-01-05T11:26:45.269Z,76.14
2024-01-05T11:29:49.677Z,75.98
2024-01-05T11:32:45.553Z,75.88
2024-01-05T11:35:44.514Z,76.05
2024-01-05T11:38:32.331Z,76.22
2024-01-05T11:41:20.126Z,75.83
2024-01-05T11:44:36.747Z,76.09
2024-01-05T11:47:47.535Z,76.20
2024-01-05T11:50:36.962Z,76.38
2024-01-05T11:53:25.408Z,76.27
2024-01-05T11:56:18.713Z,76.36
2024-01-05T11:59:06.053Z,76.23
2024-01-05T12:01:57.043Z,76.38
2024-01-05T12:04:48.212Z,76.64
2024-01-05T12:07:35.582Z,76.81
2024-01-05T12:10:26.709Z,76.78
2024-01-05T12:13:13.951Z,77.12
2024-01-05T12:16:04.029Z,77.09
2024-01-05T12:18:53.554Z,76.42
2024-01-05T12:21:40.919Z,76.78
2024-01-05T12:24:28.280Z,76.70
2024-01-05T12:27:15.634Z,77.02
2024-01-05T12:30:04.195Z,76.87
2024-01-05T12:32:54.153Z,77.25
2024-01-05T12:35:42.905Z,77.01
2024-01-05T12:38:30.661Z,77.19
2024-01-05T12:41:21.664Z,77.35
2024-01-05T12:44:10.732Z,77.56
2024-01-05T12:46:57.821Z,77.32
2024-01-05T12:49:45.142Z,76.85
2024-01-05T12:52:39.554Z,77.11
2024-01-05T12:55:34.582Z,77.35
2024-01-05T12:58:21.727Z,77.45
2024-01-05T13:01:19.836Z,77.64
2024-01-05T13:04:09.641Z,77.44
2024-01-05T13:06:56.966Z,77.24
2024-01-05T13:09:44.405Z,77.39
2024-01-05T13:12:37.397Z,77.45
2024-01-05T13:15:24.724Z,77.41
2024-01-05T13:18:12.228Z,78.08
2024-01-05T13:21:00.280Z,77.52
2024-01-05T13:23:50.303Z,77.72
2024-01-05T13:26:41.753Z,77.98
2024-01-05T13:30:07.686Z,77.89
2024-01-05T13:32:57.519Z,77.61
2024-01-05T13:35:45.021Z,77.91
2024-01-05T13:38:32.577Z,77.93
2024-01-05T13:41:27.231Z,77.71
2024-01-05T13:44:14.422Z,77.75
2024-01-05T13:47:01.649Z,77.86
2024-01-05T13:49:49.043Z,77.80
2024-01-05T13:52:39.269Z,77.67
2024-01-05T13:55:29.713Z,77.87
2024-01-05T13:58:17.028Z,77.63
2024-01-05T14:01:07.720Z,77.85
2024-01-05T14:03:54.998Z,77.93
2024-01-05T14:06:42.115Z,77.55
2024-01-05T14:10:43.697Z,77.96
2024-01-05T14:13:04.455Z,77.03
2024-01-05T14:15:54.152Z,77.70
2024-01-05T14:18:47.497Z,77.88
2024-01-05T14:21:34.896Z,77.82
2024-01-05T14:24:43.484Z,77.47
2024-01-05T14:27:30.717Z,77.51
2024-01-05T14:30:18.372Z,77.36
2024-01-05T14:33:09.230Z,77.70
2024-01-05T14:35:58.745Z,77.25
2024-01-05T14:38:45.869Z,77.38
2024-01-05T14:41:34.691Z,77.28
2024-01-05T14:44:21.975Z,77.32
2024-01-05T14:47:09.130Z,76.93
2024-01-05T14:49:56.558Z,77.27
2024-01-05T14:52:52.261Z,77.40
2024-01-05T14:55:46.849Z,77.15
2024-01-05T14:58:34.277Z,77.39
2024-01-05T15:01:21.563Z,77.53
2024-01-05T15:04:08.929Z,77.63
2024-01-05T15:06:58.394Z,77.72
2024-01-05T15:09:48.056Z,78.13
2024-01-05T15:12:35.941Z,77.95
2024-01-05T15:15:23.432Z,78.27
2024-01-05T15:18:10.734Z,77.94
2024-01-05T15:20:57.829Z,77.87
2024-01-05T15:23:49.077Z,77.57
2024-01-05T15:26:49.320Z,77.92
2024-01-05T15:29:40.340Z,78.05
2024-01-05T15:32:27.506Z,77.91
2024-01-05T15:35:15.047Z,78.09
2024-01-05T15:38:02.978Z,77.78
2024-01-05T15:40:59.287Z,77.99
2024-01-05T15:43:50.963Z,77.61
2024-01-05T15:46:38.159Z,78.06
2024-01-05T15:49:25.870Z,78.18
2024-01-05T15:52:16.515Z,77.90
2024-01-05T15:55:07.111Z,78.00
2024-01-05T15:58:20.001Z,77.55
2024-01-05T16:01:07.819Z,77.79
2024-01-05T16:03:55.387Z,78.02
2024-01-05T16:06:43.720Z,77.73
2024-01-05T16:09:31.313Z,77.74
2024-01-05T16:12:18.536Z,78.10
2024-01-05T16:15:06.371Z,77.98
2024-01-05T16:17:54.031Z,77.79
2024-01-05T16:20:42.597Z,78.08
2024-01-05T16:23:29.757Z,77.88
2024-01-05T16:26:16.983Z,77.47
2024-01-05T16:29:06.669Z,77.59
2024-01-05T16:31:53.762Z,77.92
2024-01-05T16:38:10.059Z,77.67
2024-01-05T16:40:57.196Z,77.40
2024-01-05T16:43:46.814Z,77.45
2024-01-05T16:46:38.316Z,77.47
2024-01-05T16:49:37.750Z,77.45
2024-01-05T16:52:45.456Z,77.90
2024-01-05T16:55:32.697Z,77.82
2024-01-05T16:58:22.789Z,77.62
2024-01-05T17:01:26.506Z,78.03
2024-01-05T17:04:20.610Z,78.13
2024-01-05T17:07:13.471Z,77.89
2024-01-05T17:10:00.752Z,77.43
2024-01-05T17:12:49.076Z,77.54
2024-01-05T17:15:36.268Z,77.45
2024-01-05T17:18:26.386Z,77.80
2024-01-05T17:21:14.299Z,77.29
2024-01-05T17:24:02.059Z,77.16
2024-01-05T17:26:49.575Z,77.15
2024-01-05T17:29:39.739Z,77.09
2024-01-05T17:32:26.973Z,77.25
2024-01-05T17:35:17.607Z,77.12
2024-01-05T17:38:04.886Z,77.66
2024-01-05T17:40:52.023Z,77.13
2024-01-05T17:43:42.789Z,77.27
2024-01-05T17:47:12.015Z,77.10
2024-01-05T17:50:02.831Z,77.85
2024-01-05T17:52:50.643Z,77.08
2024-01-05T17:55:38.189Z,77.67
2024-01-05T17:58:26.352Z,77.14
2024-01-05T18:00:54.033Z,77.62
2024-01-05T18:03:21.451Z,77.46
2024-01-05T18:05:52.276Z,77.88
2024-01-05T18:08:19.777Z,77.57
2024-01-05T18:10:47.251Z,77.49
2024-01-05T18:13:15.609Z,78.06
2024-01-05T18:15:43.159Z,78.14
2024-01-05T18:18:11.875Z,77.30
2024-01-05T18:20:53.243Z,77.61
2024-01-05T18:23:20.575Z,77.68
2024-01-05T18:25:49.507Z,77.96
2024-01-05T18:28:20.119Z,77.73
2024-01-05T18:30:50.065Z,78.40
2024-01-05T18:33:18.031Z,77.67
2024-01-05T18:35:48.335Z,77.71
2024-01-05T18:38:15.867Z,77.62
2024-01-05T18:40:46.922Z,77.45
2024-01-05T18:43:15.049Z,77.54
2024-01-05T18:45:45.602Z,77.38
2024-01-05T18:48:13.469Z,77.27
2024-01-05T18:50:41.212Z,77.40
2024-01-05T18:53:08.674Z,77.49
2024-01-05T18:55:37.373Z,77.05
2024-01-05T18:58:07.170Z,76.98
2024-01-05T19:00:34.491Z,77.08
2024-01-05T19:03:01.967Z,77.32
2024-01-05T19:05:29.492Z,76.79
2024-01-05T19:07:56.851Z,77.57
2024-01-05T19:10:28.264Z,77.36
2024-01-05T19:12:55.520Z,77.27
2024-01-05T19:15:22.860Z,77.12
2024-01-05T19:18:20.340Z,77.12
2024-01-05T19:21:19.989Z,77.17
2024-01-05T19:24:04.870Z,77.58
2024-01-05T19:30:01.344Z,77.60
2024-01-05T19:32:37.549Z,77.47
2024-01-05T19:35:07.665Z,77.48
2024-01-05T19:37:36.142Z,77.63
2024-01-05T19:40:11.859Z,77.59
2024-01-05T19:42:53.314Z,78.02
2024-01-05T19:45:20.695Z,77.80
2024-01-05T19:47:48.093Z,77.58
2024-01-05T19:50:21.336Z,77.70
2024-01-05T19:52:49.793Z,77.43
2024-01-05T19:55:17.443Z,77.79
2024-01-05T19:57:47.224Z,78.04
2024-01-05T20:00:35.998Z,77.66
2024-01-05T20:03:05.878Z,77.38
2024-01-05T20:05:34.239Z,77.93
2024-01-05T20:08:02.450Z,77.61
2024-01-05T20:10:31.297Z,77.67
2024-01-05T20:12:59.144Z,77.39
2024-01-05T20:15:28.509Z,77.81
2024-01-05T20:18:16.577Z,77.70
2024-01-05T20:20:44.373Z,77.42
2024-01-05T20:23:12.394Z,77.94
2024-01-05T20:25:48.844Z,77.94
2024-01-05T20:28:16.457Z,77.65
2024-01-05T20:30:44.684Z,77.49
2024-01-05T20:33:12.075Z,77.44
2024-01-05T20:35:39.728Z,77.41
2024-01-05T20:38:06.906Z,77.47
2024-01-05T20:40:34.516Z,77.72
2024-01-05T20:43:01.802Z,77.81
2024-01-05T20:45:29.160Z,77.45
2024-01-05T20:47:56.790Z,77.66
2024-01-05T20:50:24.398Z,77.33
2024-01-05T20:52:51.788Z,77.36
2024-01-05T20:55:19.014Z,77.40
2024-01-05T20:57:46.392Z,77.66
2024-01-05T21:00:13.876Z,77.62
2024-01-05T21:02:41.169Z,77.87
2024-01-05T21:05:08.680Z,77.67
2024-01-05T21:07:36.797Z,77.56
2024-01-05T21:10:05.376Z,77.84
2024-01-05T21:12:34.333Z,77.71
2024-01-05T21:15:02.653Z,77.56
2024-01-05T21:17:33.456Z,77.54
2024-01-05T21:20:01.140Z,77.58
2024-01-05T21:22:31.358Z,77.79
2024-01-05T21:25:01.639Z,77.78
2024-01-05T21:27:30.802Z,77.46
2024-01-05T21:29:58.901Z,77.62
2024-01-05T21:32:29.189Z,77.19
2024-01-05T21:34:57.727Z,77.33
2024-01-05T21:37:29.514Z,77.01
2024-01-05T21:39:56.790Z,76.92
2024-01-05T21:42:24.299Z,77.04
2024-01-05T21:44:52.101Z,76.95
2024-01-05T21:47:20.832Z,76.84
2024-01-05T21:49:49.102Z,77.08
2024-01-05T21:52:16.370Z,77.07
2024-01-05T21:54:43.662Z,76.89
2024-01-05T21:57:11.292Z,76.90
2024-01-05T21:59:39.170Z,76.80
2024-01-05T22:02:07.281Z,76.81
2024-01-05T22:04:35.021Z,76.21
2024-01-05T22:07:02.769Z,77.21
2024-01-05T22:09:30.109Z,76.87
2024-01-05T22:11:57.499Z,76.31
2024-01-05T22:14:25.084Z,76.58
2024-01-05T22:16:54.115Z,76.58
2024-01-05T22:19:22.109Z,76.33
2024-01-05T22:21:49.687Z,76.37
2024-01-05T22:24:18.423Z,76.92
2024-01-05T22:26:45.956Z,76.71
2024-01-05T22:29:13.209Z,76.62
2024-01-05T22:31:40.821Z,76.63
2024-01-05T22:34:08.143Z,76.81
2024-01-05T22:36:35.487Z,76.17
2024-01-05T22:39:03.104Z,76.80
2024-01-05T22:41:30.651Z,76.31
2024-01-05T22:43:57.875Z,76.42
2024-01-05T22:46:25.063Z,76.26
2024-01-05T22:48:52.303Z,77.16
2024-01-05T22:51:23.940Z,76.64
2024-01-05T22:53:51.510Z,76.25
2024-01-05T22:56:19.076Z,76.67
2024-01-05T22:58:46.493Z,76.05
2024-01-05T23:01:21.449Z,76.63
2024-01-05T23:03:50.482Z,76.24
2024-01-05T23:06:18.748Z,75.55
2024-01-05T23:08:46.503Z,76.20
2024-01-05T23:11:13.822Z,75.70
2024-01-05T23:13:41.131Z,76.09
2024-01-05T23:16:09.170Z,75.83
2024-01-05T23:18:36.955Z,75.82
2024-01-05T23:21:04.627Z,75.61
2024-01-05T23:23:32.084Z,75.48
2024-01-05T23:25:59.527Z,75.45
2024-01-05T23:28:26.945Z,76.33
2024-01-05T23:30:54.280Z,75.37
2024-01-05T23:33:21.707Z,75.21
